NN5DX-13 Weather Reports


Display with metric or nautical units.
time (UTC)temp
F
wind
direction
speed
MPH
gust
MPH
rain 1hr
in
rain 24hr
in
rain mn
in
humidity
%
barometer
mb
20220122175616 42 113 4.0 11.0 0.00 0.00 0.00 36 1026.5
20220122175116 42 113 5.0 10.0 0.00 0.00 0.00 36 1026.5
20220122174616 42 113 4.0 8.0 0.00 0.00 0.00 35 1026.6
20220122174116 43 113 2.0 7.0 0.00 0.00 0.00 35 1026.8
20220122173616 43 113 2.0 7.0 0.00 0.00 0.00 37 1026.7
20220122173117 42 113 3.0 8.0 0.00 0.00 0.00 37 1026.4
20220122172616 42 113 5.0 10.0 0.00 0.00 0.00 37 1026.4
20220122172116 43 113 3.0 9.0 0.00 0.00 0.00 36 1026.6
20220122171616 42 113 3.0 9.0 0.00 0.00 0.00 37 1026.5
20220122171117 42 158 3.0 8.0 0.00 0.00 0.00 38 1026.4
20220122170616 42 158 4.0 9.0 0.00 0.00 0.00 38 1026.7
20220122170116 41 158 3.0 6.0 0.00 0.00 0.00 39 1026.5
20220122165616 41 203 1.0 4.0 0.00 0.00 0.00 42 1026.6
20220122165116 40 0.0 0.0 0.00 0.00 0.00 43 1026.5
20220122164616 40 113 1.0 3.0 0.00 0.00 0.00 43 1026.5
20220122164116 40 0.0 2.0 0.00 0.00 0.00 44 1026.6
20220122163616 39 0.0 2.0 0.00 0.00 0.00 45 1026.2
20220122163116 38 0.0 1.0 0.00 0.00 0.00 46 1026.2
20220122162616 38 0.0 1.0 0.00 0.00 0.00 47 1026.2
20220122162116 38 0.0 1.0 0.00 0.00 0.00 47 1026.1
20220122161616 37 0.0 1.0 0.00 0.00 0.00 48 1026.1
20220122161116 37 0.0 3.0 0.00 0.00 0.00 48 1026.0
20220122160616 37 0.0 1.0 0.00 0.00 0.00 49 1026.2
20220122160116 37 0.0 0.0 0.00 0.00 0.00 49 1025.8
20220122155617 36 0.0 0.0 0.00 0.00 0.00 49 1025.6
20220122155116 36 0.0 0.0 0.00 0.00 0.00 49 1025.7
20220122154616 37 0.0 2.0 0.00 0.00 0.00 48 1025.6
20220122154116 37 0.0 0.0 0.00 0.00 0.00 48 1025.7
20220122153616 37 0.0 0.0 0.00 0.00 0.00 47 1025.6
20220122153116 37 0.0 0.0 0.00 0.00 0.00 48 1025.7
20220122152616 37 0.0 0.0 0.00 0.00 0.00 48 1025.4
20220122152116 37 0.0 0.0 0.00 0.00 0.00 48 1025.5
20220122151616 36 0.0 4.0 0.00 0.00 0.00 49 1025.4
20220122151116 36 0.0 2.0 0.00 0.00 0.00 49 1025.4
20220122150616 35 158 1.0 4.0 0.00 0.00 0.00 48 1025.2
20220122150116 35 135 3.0 7.0 0.00 0.00 0.00 49 1025.1
20220122145616 35 158 1.0 5.0 0.00 0.00 0.00 49 1025.1
20220122145116 34 0.0 1.0 0.00 0.00 0.00 49 1024.9
20220122144616 34 158 1.0 4.0 0.00 0.00 0.00 50 1024.8
20220122144116 34 158 2.0 6.0 0.00 0.00 0.00 50 1024.6
20220122143616 33 158 1.0 4.0 0.00 0.00 0.00 51 1024.3
20220122143116 33 158 1.0 4.0 0.00 0.00 0.00 51 1024.5
20220122142616 32 0.0 3.0 0.00 0.00 0.00 52 1024.4
20220122142116 32 0.0 2.0 0.00 0.00 0.00 52 1024.2
20220122141616 32 0.0 1.0 0.00 0.00 0.00 53 1024.0
20220122141116 31 0.0 0.0 0.00 0.00 0.00 53 1024.0
20220122140616 31 0.0 3.0 0.00 0.00 0.00 53 1023.9
20220122140116 31 135 1.0 4.0 0.00 0.00 0.00 54 1023.5
20220122135616 31 113 1.0 6.0 0.00 0.00 0.00 54 1023.4
20220122135116 31 113 2.0 6.0 0.00 0.00 0.00 53 1023.1
20220122134616 31 113 2.0 7.0 0.00 0.00 0.00 53 1023.4
20220122134116 31 113 3.0 10.0 0.00 0.00 0.00 54 1023.2
20220122133616 31 113 3.0 7.0 0.00 0.00 0.00 53 1023.2
20220122133117 31 113 2.0 7.0 0.00 0.00 0.00 53 1023.0
20220122132616 31 135 2.0 7.0 0.00 0.00 0.00 54 1023.0
20220122132116 31 113 4.0 9.0 0.00 0.00 0.00 54 1023.2
20220122131616 31 113 3.0 8.0 0.00 0.00 0.00 54 1023.2
20220122131116 31 113 3.0 8.0 0.00 0.00 0.00 53 1023.2
20220122130616 31 113 1.0 7.0 0.00 0.00 0.00 53 1023.0
20220122130116 31 135 1.0 5.0 0.00 0.00 0.00 53 1023.3
20220122125616 31 135 2.0 6.0 0.00 0.00 0.00 53 1023.3
20220122125116 31 135 3.0 8.0 0.00 0.00 0.00 53 1023.3
20220122124616 31 113 3.0 9.0 0.00 0.00 0.00 53 1023.2
20220122124116 31 113 2.0 7.0 0.00 0.00 0.00 53 1023.4
20220122123616 31 113 2.0 7.0 0.00 0.00 0.00 53 1023.4
20220122123116 32 0.0 3.0 0.00 0.00 0.00 52 1023.5
20220122122616 32 158 3.0 11.0 0.00 0.00 0.00 53 1023.2
20220122122116 32 158 4.0 10.0 0.00 0.00 0.00 53 1023.2
20220122121616 31 113 4.0 9.0 0.00 0.00 0.00 53 1023.2
20220122121116 31 113 5.0 11.0 0.00 0.00 0.00 53 1023.1
20220122120616 31 113 2.0 5.0 0.00 0.00 0.00 54 1023.3
20220122120116 31 113 1.0 3.0 0.00 0.00 0.00 54 1023.3
20220122115616 31 135 1.0 5.0 0.00 0.00 0.00 54 1023.4
20220122115116 31 135 2.0 6.0 0.00 0.00 0.00 55 1023.2
20220122114616 31 158 2.0 5.0 0.00 0.00 0.00 55 1023.2
20220122114116 31 135 1.0 4.0 0.00 0.00 0.00 55 1023.1
20220122113616 31 147 0.0 0.0 0.00 0.00 0.00 55 1023.1
20220122111616 31 0.0 0.0 0.00 0.00 0.00 55 1023.2
20220122111116 31 0.0 0.0 0.00 0.00 0.00 55 1023.1
20220122110616 31 0.0 0.0 0.00 0.00 0.00 55 1023.1
20220122110116 31 0.0 0.0 0.00 0.00 0.00 55 1023.0
20220122105616 31 0.0 2.0 0.00 0.00 0.00 55 1023.0
20220122105116 31 0.0 2.0 0.00 0.00 0.00 54 1023.0
20220122104616 32 0.0 1.0 0.00 0.00 0.00 54 1023.0
20220122104116 32 0.0 2.0 0.00 0.00 0.00 54 1023.2
20220122103616 32 0.0 2.0 0.00 0.00 0.00 54 1023.1
20220122103116 32 0.0 3.0 0.00 0.00 0.00 53 1023.1
20220122102616 32 0.0 1.0 0.00 0.00 0.00 53 1023.1
20220122102116 32 129 0.0 0.0 0.00 0.00 0.00 53 1023.1
20220122101616 33 158 2.0 6.0 0.00 0.00 0.00 53 1023.0
20220122101116 33 158 3.0 6.0 0.00 0.00 0.00 53 1023.0
20220122100616 32 135 2.0 5.0 0.00 0.00 0.00 53 1023.0
20220122100116 32 135 1.0 5.0 0.00 0.00 0.00 53 1023.0
20220122095616 33 158 1.0 7.0 0.00 0.00 0.00 53 1023.0
20220122095116 33 0.0 3.0 0.00 0.00 0.00 54 1023.0
20220122094616 32 158 1.0 4.0 0.00 0.00 0.00 54 1022.7
20220122094116 32 0.0 0.0 0.00 0.00 0.00 54 1022.7
20220122093616 33 0.0 0.0 0.00 0.00 0.00 54 1022.5
20220122093116 33 0.0 3.0 0.00 0.00 0.00 53 1022.8
20220122092616 33 158 1.0 5.0 0.00 0.00 0.00 53 1022.7
20220122092116 33 0.0 3.0 0.00 0.00 0.00 53 1022.7
20220122091616 33 0.0 3.0 0.00 0.00 0.00 53 1022.9
20220122091116 33 158 1.0 4.0 0.00 0.00 0.00 53 1022.9
20220122090616 34 0.0 3.0 0.00 0.00 0.00 52 1022.9
20220122090116 34 0.0 5.0 0.00 0.00 0.00 52 1022.9
20220122085616 34 135 1.0 5.0 0.00 0.00 0.00 52 1022.9
20220122085116 34 158 2.0 7.0 0.00 0.00 0.00 51 1022.9
20220122084616 34 135 4.0 9.0 0.00 0.00 0.00 51 1022.7
20220122084116 35 158 5.0 10.0 0.00 0.00 0.00 52 1022.6
20220122083616 35 158 6.0 12.0 0.00 0.00 0.00 52 1022.6
20220122083116 35 158 6.0 12.0 0.00 0.00 0.00 52 1022.7
20220122082616 35 158 7.0 13.0 0.00 0.00 0.00 52 1022.4
20220122082116 35 158 7.0 15.0 0.00 0.00 0.00 52 1022.4
20220122081616 35 158 6.0 13.0 0.00 0.00 0.00 52 1022.4
20220122081116 35 158 7.0 13.0 0.00 0.00 0.00 52 1022.4
20220122080616 35 158 5.0 10.0 0.00 0.00 0.00 52 1022.2
20220122080116 35 158 6.0 14.0 0.00 0.00 0.00 51 1022.1
20220122075616 35 158 7.0 14.0 0.00 0.00 0.00 51 1022.0
20220122075116 35 158 6.0 15.0 0.00 0.00 0.00 51 1021.7
20220122074616 35 180 4.0 12.0 0.00 0.00 0.00 51 1021.8
20220122074116 35 180 6.0 13.0 0.00 0.00 0.00 51 1021.8
20220122073616 35 180 8.0 14.0 0.00 0.00 0.00 51 1021.6
20220122073116 36 158 10.0 16.0 0.00 0.00 0.00 51 1021.5
20220122072616 35 158 9.0 15.0 0.00 0.00 0.00 51 1021.4
20220122072116 36 158 8.0 15.0 0.00 0.00 0.00 50 1021.3
20220122071616 36 158 9.0 15.0 0.00 0.00 0.00 50 1021.5
20220122071116 36 158 8.0 15.0 0.00 0.00 0.00 50 1021.5
20220122070616 36 158 8.0 16.0 0.00 0.00 0.00 50 1021.6
20220122070116 36 158 7.0 13.0 0.00 0.00 0.00 50 1021.4
20220122065616 36 158 5.0 10.0 0.00 0.00 0.00 50 1021.5
20220122065116 36 158 7.0 15.0 0.00 0.00 0.00 50 1021.5
20220122064616 36 158 7.0 13.0 0.00 0.00 0.00 50 1021.6
20220122064116 36 158 9.0 14.0 0.00 0.00 0.00 50 1021.5
20220122063616 36 158 8.0 14.0 0.00 0.00 0.00 51 1021.6
20220122063116 36 158 8.0 16.0 0.00 0.00 0.00 51 1021.5
20220122062617 37 158 8.0 21.0 0.00 0.00 0.00 51 1021.4
20220122062116 37 158 7.0 19.0 0.00 0.00 0.00 51 1021.4
20220122061616 37 158 7.0 14.0 0.00 0.00 0.00 50 1021.4
20220122061116 37 158 7.0 17.0 0.00 0.00 0.00 50 1021.5
20220122060616 37 158 9.0 18.0 0.00 0.00 0.00 50 1021.4
20220122060116 37 180 7.0 14.0 0.00 0.00 0.00 50 1021.2
20220122055617 37 158 6.0 13.0 0.00 0.00 0.00 50 1021.2
20220122055117 37 158 7.0 11.0 0.00 0.00 0.00 50 1021.3
20220122054617 37 158 6.0 12.0 0.00 0.00 0.00 50 1020.9
20220122054117 37 158 6.0 13.0 0.00 0.00 0.00 49 1020.8
20220122053617 37 158 6.0 15.0 0.00 0.00 0.00 49 1020.8
20220122053117 37 158 7.0 18.0 0.00 0.00 0.00 49 1020.9
20220122052616 37 135 6.0 16.0 0.00 0.00 0.00 49 1020.8
20220122052117 37 158 7.0 13.0 0.00 0.00 0.00 48 1020.8
20220122051617 37 158 7.0 16.0 0.00 0.00 0.00 48 1020.6
20220122051117 38 158 7.0 14.0 0.00 0.00 0.00 47 1020.7
20220122050617 38 135 6.0 18.0 0.00 0.00 0.00 47 1020.6
20220122050117 38 158 7.0 14.0 0.00 0.00 0.00 46 1020.5
20220122045617 38 158 6.0 14.0 0.00 0.00 0.00 46 1020.8
20220122045117 38 135 5.0 11.0 0.00 0.00 0.00 45 1020.5
20220122044616 38 135 5.0 10.0 0.00 0.00 0.00 45 1020.5
20220122044116 38 135 5.0 11.0 0.00 0.00 0.00 44 1020.6
20220122043617 38 158 5.0 12.0 0.00 0.00 0.00 44 1020.6
20220122043116 38 135 5.0 12.0 0.00 0.00 0.00 44 1020.4
20220122042617 38 158 5.0 11.0 0.00 0.00 0.00 43 1020.3
20220122042117 39 158 5.0 10.0 0.00 0.00 0.00 43 1020.3
20220122041617 39 158 6.0 12.0 0.00 0.00 0.00 43 1020.2
20220122041117 39 135 7.0 14.0 0.00 0.00 0.00 43 1020.1
20220122040616 39 158 6.0 12.0 0.00 0.00 0.00 43 1020.1
20220122040118 39 158 6.0 12.0 0.00 0.00 0.00 43 1020.0
20220122035617 39 158 5.0 10.0 0.00 0.00 0.00 43 1020.0
20220122035117 39 135 4.0 11.0 0.00 0.00 0.00 43 1019.7
20220122034617 39 158 6.0 11.0 0.00 0.00 0.00 43 1019.6
20220122034117 39 158 5.0 11.0 0.00 0.00 0.00 43 1019.7
20220122033617 39 158 6.0 15.0 0.00 0.00 0.00 42 1019.7
20220122033117 39 135 5.0 12.0 0.00 0.00 0.00 42 1019.4
20220122032617 40 158 6.0 12.0 0.00 0.00 0.00 42 1019.4
20220122032116 40 158 6.0 15.0 0.00 0.00 0.00 41 1019.3
20220122031616 40 158 6.0 13.0 0.00 0.00 0.00 41 1019.2
20220122031117 40 158 6.0 12.0 0.00 0.00 0.00 40 1019.3
20220122030617 40 135 7.0 17.0 0.00 0.00 0.00 40 1019.0
20220122030117 40 135 6.0 14.0 0.00 0.00 0.00 40 1019.0
20220122025617 40 158 6.0 12.0 0.00 0.00 0.00 39 1019.1
20220122025117 40 135 5.0 12.0 0.00 0.00 0.00 39 1019.0
20220122024617 40 158 5.0 11.0 0.00 0.00 0.00 38 1018.8
20220122024117 40 135 5.0 11.0 0.00 0.00 0.00 38 1018.8
20220122023617 40 158 5.0 12.0 0.00 0.00 0.00 38 1018.9
20220122023117 41 135 5.0 11.0 0.00 0.00 0.00 37 1018.9
20220122022617 41 158 5.0 13.0 0.00 0.00 0.00 37 1019.0
20220122022117 41 158 4.0 8.0 0.00 0.00 0.00 37 1019.0
20220122021617 41 158 4.0 10.0 0.00 0.00 0.00 37 1018.8
20220122021117 41 158 4.0 9.0 0.00 0.00 0.00 36 1018.8
20220122020617 42 158 4.0 9.0 0.00 0.00 0.00 36 1018.7
20220122020116 42 158 4.0 10.0 0.00 0.00 0.00 36 1018.7
20220122015616 42 158 4.0 8.0 0.00 0.00 0.00 36 1018.6
20220122015116 43 158 4.0 9.0 0.00 0.00 0.00 36 1018.6
20220122014616 43 135 4.0 7.0 0.00 0.00 0.00 35 1018.8
20220122014116 43 135 4.0 9.0 0.00 0.00 0.00 35 1018.6
20220122013617 44 135 3.0 8.0 0.00 0.00 0.00 35 1019.0
20220122013116 44 158 3.0 6.0 0.00 0.00 0.00 35 1018.8
20220122012616 44 135 3.0 8.0 0.00 0.00 0.00 35 1018.7
20220122012116 45 135 4.0 11.0 0.00 0.00 0.00 35 1018.9
20220122011617 45 135 4.0 10.0 0.00 0.00 0.00 35 1018.8
20220122011117 46 135 4.0 10.0 0.00 0.00 0.00 35 1019.0
20220122010617 46 135 3.0 10.0 0.00 0.00 0.00 36 1018.9
20220122010117 47 135 3.0 9.0 0.00 0.00 0.00 36 1019.2
20220122005617 47 135 3.0 7.0 0.00 0.00 0.00 37 1019.2
20220122005117 48 135 2.0 7.0 0.00 0.00 0.00 37 1019.3
20220122004617 48 135 2.0 5.0 0.00 0.00 0.00 38 1019.2
20220122004117 49 135 3.0 8.0 0.00 0.00 0.00 38 1019.1
20220122003617 49 135 3.0 7.0 0.00 0.00 0.00 37 1019.2
20220122003117 50 135 4.0 8.0 0.00 0.00 0.00 37 1019.2
20220122002616 51 135 3.0 9.0 0.00 0.00 0.00 37 1019.2
20220122002116 51 113 3.0 8.0 0.00 0.00 0.00 36 1019.0
20220122001617 52 135 3.0 8.0 0.00 0.00 0.00 36 1019.1
20220122001116 53 135 4.0 11.0 0.00 0.00 0.00 35 1019.0
20220122000617 53 135 5.0 10.0 0.00 0.00 0.00 34 1018.9
20220122000116 54 135 4.0 12.0 0.00 0.00 0.00 34 1018.8
20220121235617 55 135 4.0 12.0 0.00 0.00 0.00 34 1019.0
20220121235116 55 113 4.0 11.0 0.00 0.00 0.00 33 1019.0
20220121234616 55 135 5.0 13.0 0.00 0.00 0.00 33 1018.9
20220121234116 56 113 6.0 12.0 0.00 0.00 0.00 33 1018.8
20220121233617 57 135 6.0 13.0 0.00 0.00 0.00 32 1018.9
20220121233117 57 135 4.0 10.0 0.00 0.00 0.00 32 1019.0
20220121232617 58 158 4.0 11.0 0.00 0.00 0.00 32 1019.3
20220121232117 58 135 5.0 10.0 0.00 0.00 0.00 32 1019.1
20220121231617 58 135 3.0 9.0 0.00 0.00 0.00 32 1019.1
20220121231117 58 135 4.0 8.0 0.00 0.00 0.00 32 1019.1
20220121230616 57 113 2.0 7.0 0.00 0.00 0.00 33 1019.2
20220121230117 57 90 6.0 13.0 0.00 0.00 0.00 32 1019.3
20220121225617 57 90 7.0 12.0 0.00 0.00 0.00 32 1019.4
20220121225117 57 113 7.0 13.0 0.00 0.00 0.00 32 1019.5
20220121224617 57 113 8.0 16.0 0.00 0.00 0.00 31 1019.6
20220121224117 58 90 4.0 14.0 0.00 0.00 0.00 31 1019.5
20220121223617 58 90 1.0 4.0 0.00 0.00 0.00 33 1019.8
20220121223116 59 68 1.0 5.0 0.00 0.00 0.00 32 1019.8
20220121222617 59 0.0 1.0 0.00 0.00 0.00 32 1020.2
20220121222117 58 0.0 4.0 0.00 0.00 0.00 33 1020.1
20220121221617 58 68 2.0 5.0 0.00 0.00 0.00 32 1020.2
20220121221117 59 68 3.0 7.0 0.00 0.00 0.00 32 1020.4
20220121220617 58 45 1.0 5.0 0.00 0.00 0.00 33 1020.3
20220121220117 58 90 1.0 3.0 0.00 0.00 0.00 34 1020.4
20220121215617 58 68 1.0 4.0 0.00 0.00 0.00 33 1020.5
20220121215117 58 0.0 1.0 0.00 0.00 0.00 34 1020.7
20220121214617 58 0.0 3.0 0.00 0.00 0.00 34 1020.5
20220121214117 57 90 1.0 6.0 0.00 0.00 0.00 35 1020.6
20220121213617 57 68 3.0 7.0 0.00 0.00 0.00 35 1020.7
20220121213117 57 90 2.0 5.0 0.00 0.00 0.00 35 1020.7
20220121212617 57 45 2.0 5.0 0.00 0.00 0.00 34 1020.7
20220121212117 57 0.0 2.0 0.00 0.00 0.00 35 1020.8
20220121211617 57 68 1.0 5.0 0.00 0.00 0.00 35 1021.0
20220121211117 57 0.0 3.0 0.00 0.00 0.00 35 1021.1
20220121210617 56 113 1.0 6.0 0.00 0.00 0.00 36 1021.2
20220121210117 56 113 2.0 4.0 0.00 0.00 0.00 36 1021.3
20220121205617 56 0.0 2.0 0.00 0.00 0.00 36 1021.3
20220121205117 56 158 1.0 3.0 0.00 0.00 0.00 36 1021.5
20220121204617 55 135 1.0 5.0 0.00 0.00 0.00 37 1021.4
20220121204117 55 90 2.0 5.0 0.00 0.00 0.00 37 1021.4
20220121203617 55 293 1.0 3.0 0.00 0.00 0.00 37 1021.5
20220121203117 55 180 1.0 2.0 0.00 0.00 0.00 37 1021.7
20220121202617 55 113 1.0 3.0 0.00 0.00 0.00 38 1021.5
20220121202117 54 90 1.0 5.0 0.00 0.00 0.00 39 1021.6
20220121201617 54 68 1.0 4.0 0.00 0.00 0.00 38 1021.8
20220121201117 54 113 1.0 5.0 0.00 0.00 0.00 39 1022.0
20220121200617 54 0.0 2.0 0.00 0.00 0.00 39 1022.0
20220121200117 54 113 1.0 4.0 0.00 0.00 0.00 39 1022.1
20220121195617 53 0.0 2.0 0.00 0.00 0.00 42 1021.9
20220121195117 52 113 1.0 4.0 0.00 0.00 0.00 42 1022.2
20220121194616 52 90 1.0 7.0 0.00 0.00 0.00 43 1022.0
20220121194116 52 45 1.0 5.0 0.00 0.00 0.00 42 1022.3
20220121193617 51 0.0 2.0 0.00 0.00 0.00 44 1022.3
20220121193117 51 68 1.0 5.0 0.00 0.00 0.00 44 1022.4
20220121192617 51 180 1.0 3.0 0.00 0.00 0.00 44 1022.5
20220121192117 50 113 2.0 5.0 0.00 0.00 0.00 45 1022.6
20220121191617 50 338 1.0 4.0 0.00 0.00 0.00 45 1022.4
20220121191116 50 45 2.0 5.0 0.00 0.00 0.00 46 1022.6
20220121190617 50 68 1.0 5.0 0.00 0.00 0.00 45 1022.8
20220121190117 50 113 1.0 4.0 0.00 0.00 0.00 47 1022.9
20220121185617 49 113 2.0 5.0 0.00 0.00 0.00 46 1023.0
20220121185117 49 90 1.0 6.0 0.00 0.00 0.00 47 1023.1
20220121184617 49 90 2.0 6.0 0.00 0.00 0.00 47 1023.2
20220121184117 48 23 1.0 4.0 0.00 0.00 0.00 48 1023.3
20220121183617 48 45 1.0 5.0 0.00 0.00 0.00 49 1023.5
20220121183117 48 90 2.0 5.0 0.00 0.00 0.00 49 1023.7
20220121182616 48 23 1.0 4.0 0.00 0.00 0.00 50 1023.8
20220121182117 47 90 2.0 5.0 0.00 0.00 0.00 51 1023.9
20220121181617 47 68 2.0 8.0 0.00 0.00 0.00 50 1024.1
20220121181116 47 90 2.0 6.0 0.00 0.00 0.00 50 1024.3
20220121180618 47 45 1.0 6.0 0.00 0.00 0.00 50 1024.3
20220121180116 47 135 1.0 4.0 0.00 0.00 0.00 51 1024.1